EGHE/ISC METAR and TAF weather

Enter ICAO airport designator
Station Type Date Time Source
EGHE METAR 2020/07/06 16:20 UTC NOAA

EGHE 061620Z 29010KT 9999 FEW020 16/11 Q1027


Station Type Date Time Source
EGHE Decoded METAR 2020/07/06 16:20 UTC NOAA

Scilly, Saint Mary'S, United Kingdom (EGHE) 49-55N 006-18W 0M
Jul 06, 2020 - 12:20 PM EDT / 2020.07.06 1620 UTC
Wind: from the WNW (290 degrees) at 12 MPH (10 KT):0
Visibility: greater than 7 mile(s):0
Sky conditions: mostly clear
Temperature: 60 F (16 C)
Dew Point: 51 F (11 C)
Relative Humidity: 72%
Pressure (altimeter): 30.33 in. Hg (1027 hPa)
ob: EGHE 061620Z 29010KT 9999 FEW020 16/11 Q1027
cycle: 16

Station Type Date Time Source
EGHE TAF UTC NOAA

Error!

Example: see airport list